Time;durP1;ratioP1;P1;durP2;ratioP2;P2;SDS_P1;SDS_P2;PMS_P1;PMS_P2;Temp;Humidity;BMP_temperature;BMP_pressure;BME280_temperature;BME280_humidity;BME280_pressure;Samples;Min_cycle;Max_cycle;Signal;HPM_P1;HPM_P2
2022/05/30 00:02:12;;;;;;;1.75;1.20;;;;;;;;;;5076359;28;20028;-83
2022/05/30 00:04:38;;;;;;;2.33;1.10;;;;;;;;;;5075559;28;20125;-83
2022/05/30 00:07:06;;;;;;;1.98;0.90;;;;;;;;;;5075697;28;20032;-84
2022/05/30 00:09:33;;;;;;;1.48;1.00;;;;;;;;;;5075956;28;20125;-84
2022/05/30 00:11:59;;;;;;;2.45;1.02;;;;;;;;;;5058955;28;20028;-84
2022/05/30 00:14:25;;;;;;;1.38;1.00;;;;;;;;;;5076510;28;20032;-84
2022/05/30 00:16:51;;;;;;;1.63;1.10;;;;;;;;;;5075751;28;20059;-84
2022/05/30 00:19:17;;;;;;;1.10;0.80;;;;;;;;;;5075549;28;20477;-84
2022/05/30 00:21:44;;;;;;;1.13;0.90;;;;;;;;;;5074596;28;20039;-84
2022/05/30 00:24:10;;;;;;;1.02;0.90;;;;;;;;;;5076704;28;20085;-84
2022/05/30 00:26:36;;;;;;;2.38;1.10;;;;;;;;;;5076499;28;20097;-84
2022/05/30 00:29:02;;;;;;;2.45;0.93;;;;;;;;;;5076379;28;20031;-84
2022/05/30 00:31:29;;;;;;;1.05;0.90;;;;;;;;;;5076460;28;20516;-85
2022/05/30 00:33:55;;;;;;;1.02;0.93;;;;;;;;;;5076447;28;20028;-83
2022/05/30 00:36:20;;;;;;;0.93;0.80;;;;;;;;;;5075151;28;20518;-85
2022/05/30 00:38:46;;;;;;;1.52;1.00;;;;;;;;;;5075799;28;20032;-84
2022/05/30 00:41:11;;;;;;;1.42;0.98;;;;;;;;;;5075166;28;20543;-84
2022/05/30 00:43:39;;;;;;;1.42;0.90;;;;;;;;;;5075183;28;20059;-84
2022/05/30 00:46:11;;;;;;;2.72;1.00;;;;;;;;;;5074780;28;20423;-84
2022/05/30 00:49:00;;;;;;;1.27;0.90;;;;;;;;;;5076264;28;20036;-84
2022/05/30 00:51:32;;;;;;;2.67;0.95;;;;;;;;;;5074841;28;20036;-84
2022/05/30 00:53:59;;;;;;;1.83;0.82;;;;;;;;;;5074711;28;20497;-83
2022/05/30 00:56:31;;;;;;;1.95;1.00;;;;;;;;;;5057997;28;20036;-83
2022/05/30 00:58:58;;;;;;;1.08;0.88;;;;;;;;;;5074886;28;20070;-83
2022/05/30 01:01:25;;;;;;;1.38;0.82;;;;;;;;;;5058001;28;20052;-84
2022/05/30 01:06:47;;;;;;;1.00;0.90;;;;;;;;;;5075850;28;20041;-85
2022/05/30 01:09:36;;;;;;;1.05;0.88;;;;;;;;;;5074452;28;20408;-84
2022/05/30 01:12:03;;;;;;;1.45;0.80;;;;;;;;;;5057883;28;20524;-84
2022/05/30 01:14:33;;;;;;;1.02;0.70;;;;;;;;;;5074172;28;20390;-84
2022/05/30 01:16:59;;;;;;;1.65;1.10;;;;;;;;;;5074225;28;20051;-84
2022/05/30 01:19:44;;;;;;;1.02;0.80;;;;;;;;;;5056972;28;20115;-84
2022/05/30 01:22:32;;;;;;;0.95;0.80;;;;;;;;;;5074644;28;20140;-84
2022/05/30 01:25:32;;;;;;;2.17;1.05;;;;;;;;;;5074190;28;20161;-85
2022/05/30 01:28:22;;;;;;;1.95;0.88;;;;;;;;;;5074329;28;20047;-84
2022/05/30 01:30:50;;;;;;;1.10;0.90;;;;;;;;;;5074295;28;20063;-84
2022/05/30 01:33:16;;;;;;;1.27;0.88;;;;;;;;;;5073638;28;20024;-84
2022/05/30 01:35:42;;;;;;;1.60;0.82;;;;;;;;;;5073736;28;20074;-84
2022/05/30 01:38:13;;;;;;;1.30;0.90;;;;;;;;;;5074234;28;20021;-83
2022/05/30 01:40:38;;;;;;;1.92;0.80;;;;;;;;;;5073672;28;20561;-83
2022/05/30 01:43:04;;;;;;;2.00;0.93;;;;;;;;;;5073731;28;20055;-83
2022/05/30 01:45:30;;;;;;;3.10;0.80;;;;;;;;;;5056639;28;20032;-84
2022/05/30 01:47:56;;;;;;;1.60;0.90;;;;;;;;;;5073497;28;20025;-83
2022/05/30 01:50:24;;;;;;;4.35;1.15;;;;;;;;;;5074067;28;20092;-83
2022/05/30 01:52:50;;;;;;;0.98;0.90;;;;;;;;;;5074886;28;20052;-83
2022/05/30 01:55:25;;;;;;;1.17;1.00;;;;;;;;;;5073703;28;20021;-83
2022/05/30 01:57:58;;;;;;;1.80;0.90;;;;;;;;;;5073356;28;20063;-83
2022/05/30 02:00:33;;;;;;;1.50;0.90;;;;;;;;;;5075103;28;20036;-83
2022/05/30 02:02:59;;;;;;;1.20;0.90;;;;;;;;;;5073681;28;20032;-83
2022/05/30 02:05:25;;;;;;;1.08;0.90;;;;;;;;;;5073206;28;20088;-83
2022/05/30 02:07:51;;;;;;;2.08;1.00;;;;;;;;;;5073250;28;20059;-83
2022/05/30 02:10:23;;;;;;;1.25;0.90;;;;;;;;;;5073033;28;20024;-83
2022/05/30 02:12:50;;;;;;;1.98;0.80;;;;;;;;;;5073247;28;20029;-83
2022/05/30 02:15:19;;;;;;;1.58;0.90;;;;;;;;;;5073117;28;20059;-83
2022/05/30 02:17:52;;;;;;;0.80;0.80;;;;;;;;;;5073289;28;20134;-84
2022/05/30 02:20:18;;;;;;;0.95;0.90;;;;;;;;;;5073467;28;20036;-83
2022/05/30 02:22:45;;;;;;;1.10;0.90;;;;;;;;;;5073414;28;20033;-83
2022/05/30 02:25:12;;;;;;;1.10;0.90;;;;;;;;;;5073488;28;20035;-83
2022/05/30 02:27:39;;;;;;;3.33;1.10;;;;;;;;;;5073477;28;20492;-83
2022/05/30 02:30:05;;;;;;;3.08;1.10;;;;;;;;;;5072685;28;20024;-84
2022/05/30 02:32:30;;;;;;;2.17;0.90;;;;;;;;;;5074448;28;20055;-84
2022/05/30 02:37:41;;;;;;;0.98;0.90;;;;;;;;;;5073083;28;20577;-84
2022/05/30 02:40:26;;;;;;;1.52;0.93;;;;;;;;;;5072277;28;20090;-85
2022/05/30 02:43:11;;;;;;;1.85;1.00;;;;;;;;;;5073586;28;20415;-84
2022/05/30 02:45:41;;;;;;;1.60;1.10;;;;;;;;;;5075080;28;20029;-84
2022/05/30 02:48:08;;;;;;;2.20;0.90;;;;;;;;;;5077413;28;20028;-84
2022/05/30 02:50:34;;;;;;;1.17;0.90;;;;;;;;;;5077202;28;20043;-84
2022/05/30 02:53:01;;;;;;;1.50;1.05;;;;;;;;;;5077295;28;20060;-84
2022/05/30 02:55:47;;;;;;;1.92;1.00;;;;;;;;;;5076520;28;20049;-84
2022/05/30 02:58:13;;;;;;;2.55;1.20;;;;;;;;;;5077217;28;20103;-84
2022/05/30 03:00:38;;;;;;;1.25;1.00;;;;;;;;;;5077081;28;20025;-84
2022/05/30 03:03:04;;;;;;;1.42;0.95;;;;;;;;;;5076628;28;20404;-84
2022/05/30 03:05:30;;;;;;;2.83;0.90;;;;;;;;;;5076109;28;20040;-84
2022/05/30 03:07:57;;;;;;;1.10;1.00;;;;;;;;;;5076271;28;20028;-84
2022/05/30 03:10:42;;;;;;;1.63;0.98;;;;;;;;;;5077445;28;20112;-84
2022/05/30 03:13:08;;;;;;;1.10;1.00;;;;;;;;;;5076962;28;20075;-84
2022/05/30 03:15:35;;;;;;;2.10;1.10;;;;;;;;;;5076279;28;20032;-84
2022/05/30 03:18:01;;;;;;;8.15;4.00;;;;;;;;;;5076688;28;20044;-83
2022/05/30 03:20:28;;;;;;;3.20;2.40;;;;;;;;;;5076536;28;20115;-84
2022/05/30 03:22:53;;;;;;;3.78;1.67;;;;;;;;;;5076181;28;20036;-83
2022/05/30 03:25:19;;;;;;;2.72;1.35;;;;;;;;;;5077167;28;20025;-83
2022/05/30 03:27:48;;;;;;;1.58;1.20;;;;;;;;;;5076120;28;20108;-83
2022/05/30 03:30:14;;;;;;;1.48;1.10;;;;;;;;;;5075754;28;20243;-84
2022/05/30 03:32:43;;;;;;;4.20;2.30;;;;;;;;;;5076362;28;20047;-83
2022/05/30 03:35:10;;;;;;;4.75;1.90;;;;;;;;;;5076272;28;20036;-83
2022/05/30 03:37:40;;;;;;;1.55;1.27;;;;;;;;;;5076206;28;20028;-83
2022/05/30 03:40:32;;;;;;;2.30;1.52;;;;;;;;;;5053572;28;20095;-84
2022/05/30 03:43:16;;;;;;;1.50;1.40;;;;;;;;;;5077463;28;20056;-83
2022/05/30 03:45:44;;;;;;;2.13;1.52;;;;;;;;;;5075720;28;20036;-83
2022/05/30 03:48:12;;;;;;;2.60;1.30;;;;;;;;;;5059528;28;20028;-83
2022/05/30 03:50:41;;;;;;;1.40;1.20;;;;;;;;;;5076061;28;20032;-83
2022/05/30 03:53:08;;;;;;;1.88;1.20;;;;;;;;;;5059295;28;20025;-83
2022/05/30 03:55:40;;;;;;;1.83;1.30;;;;;;;;;;5075462;28;20032;-83
2022/05/30 03:58:07;;;;;;;1.20;1.10;;;;;;;;;;5075158;28;20480;-83
2022/05/30 04:00:34;;;;;;;1.52;1.30;;;;;;;;;;5075970;28;20052;-82
2022/05/30 04:03:02;;;;;;;6.15;1.20;;;;;;;;;;5074713;28;20036;-83
2022/05/30 04:05:28;;;;;;;4.45;1.40;;;;;;;;;;5077119;28;20098;-85
2022/05/30 04:07:54;;;;;;;3.28;1.60;;;;;;;;;;5075611;28;20079;-84
2022/05/30 04:10:46;;;;;;;1.50;1.10;;;;;;;;;;5074377;28;20040;-83
2022/05/30 04:13:20;;;;;;;1.83;1.20;;;;;;;;;;5076824;28;20028;-83
2022/05/30 04:16:12;;;;;;;3.03;1.40;;;;;;;;;;5075858;28;20413;-83
2022/05/30 04:18:39;;;;;;;4.43;1.20;;;;;;;;;;5075407;28;20033;-83
2022/05/30 04:21:07;;;;;;;2.78;1.40;;;;;;;;;;5059274;28;20040;-83
2022/05/30 04:23:33;;;;;;;2.15;1.40;;;;;;;;;;5075176;28;20020;-83
2022/05/30 04:26:04;;;;;;;3.65;1.42;;;;;;;;;;5074852;28;20071;-83
2022/05/30 04:28:31;;;;;;;1.65;1.30;;;;;;;;;;5058769;28;20033;-83
2022/05/30 04:31:26;;;;;;;3.45;1.60;;;;;;;;;;5039349;28;20029;-83
2022/05/30 04:33:51;;;;;;;7.35;3.60;;;;;;;;;;5074921;28;20036;-84
2022/05/30 04:36:18;;;;;;;3.80;1.70;;;;;;;;;;5075114;28;20393;-83
2022/05/30 04:38:49;;;;;;;4.65;2.50;;;;;;;;;;5075038;28;20085;-83
2022/05/30 04:41:40;;;;;;;9.13;7.47;;;;;;;;;;5059901;28;20036;-83
2022/05/30 04:44:24;;;;;;;3.25;2.38;;;;;;;;;;5075794;28;20066;-83
2022/05/30 04:47:11;;;;;;;5.50;2.22;;;;;;;;;;5053970;28;20043;-83
2022/05/30 04:49:41;;;;;;;11.60;8.25;;;;;;;;;;5075254;28;20028;-83
2022/05/30 04:52:08;;;;;;;2.50;1.98;;;;;;;;;;5074800;28;20489;-84
2022/05/30 04:54:34;;;;;;;2.20;1.73;;;;;;;;;;5074249;28;20012;-84
2022/05/30 04:57:18;;;;;;;5.60;2.00;;;;;;;;;;5075211;28;20067;-84
2022/05/30 04:59:52;;;;;;;;;;;;;;;;;;5074979;28;20043;-82
2022/05/30 05:02:17;;;;;;;6.45;3.25;;;;;;;;;;5074169;28;20003;-84
2022/05/30 05:04:44;;;;;;;3.17;1.95;;;;;;;;;;5074034;28;20055;-83
2022/05/30 05:07:09;;;;;;;2.00;1.70;;;;;;;;;;5073635;28;20068;-84
2022/05/30 05:09:47;;;;;;;2.58;1.60;;;;;;;;;;5073325;28;20032;-83
2022/05/30 05:12:21;;;;;;;8.10;3.00;;;;;;;;;;5074639;28;20052;-83
2022/05/30 05:15:06;;;;;;;2.30;1.38;;;;;;;;;;5074686;28;20154;-83
2022/05/30 05:17:43;;;;;;;3.00;1.80;;;;;;;;;;5074672;28;20119;-84
2022/05/30 05:20:10;;;;;;;5.63;2.35;;;;;;;;;;5056129;28;20056;-83
2022/05/30 05:22:35;;;;;;;2.60;1.55;;;;;;;;;;5073806;28;20071;-84
2022/05/30 05:25:01;;;;;;;1.88;1.67;;;;;;;;;;5073748;28;20032;-83
2022/05/30 05:27:29;;;;;;;5.15;1.80;;;;;;;;;;5075842;28;20421;-84
2022/05/30 05:29:55;;;;;;;2.15;1.25;;;;;;;;;;5073524;28;20013;-83
2022/05/30 05:32:21;;;;;;;1.58;1.00;;;;;;;;;;5073697;28;20033;-83
2022/05/30 05:34:50;;;;;;;1.15;0.98;;;;;;;;;;5072760;28;20052;-83
2022/05/30 05:37:17;;;;;;;2.08;1.30;;;;;;;;;;5072306;28;20048;-83
2022/05/30 05:39:49;;;;;;;3.38;1.25;;;;;;;;;;5075207;28;20024;-83
2022/05/30 05:42:15;;;;;;;1.55;1.05;;;;;;;;;;5073522;28;20040;-83
2022/05/30 05:44:40;;;;;;;1.52;1.00;;;;;;;;;;5073580;28;20028;-83
2022/05/30 05:47:07;;;;;;;2.03;0.98;;;;;;;;;;5073955;28;20037;-83
2022/05/30 05:49:32;;;;;;;2.15;0.90;;;;;;;;;;5076839;28;20021;-86
2022/05/30 05:51:59;;;;;;;1.92;1.00;;;;;;;;;;5073533;28;20032;-83
2022/05/30 05:54:26;;;;;;;1.17;0.80;;;;;;;;;;5072295;28;20377;-84
2022/05/30 05:56:53;;;;;;;1.23;0.88;;;;;;;;;;5073230;28;20070;-81
2022/05/30 05:59:24;;;;;;;1.30;1.05;;;;;;;;;;5073172;28;20025;-85
2022/05/30 06:01:50;;;;;;;1.40;1.00;;;;;;;;;;5073659;28;20037;-84
2022/05/30 06:04:17;;;;;;;2.85;1.13;;;;;;;;;;5073251;28;20033;-85
2022/05/30 06:06:44;;;;;;;1.95;1.20;;;;;;;;;;5074246;28;20044;-85
2022/05/30 06:09:10;;;;;;;1.15;0.95;;;;;;;;;;5073699;28;20052;-83
2022/05/30 06:11:48;;;;;;;2.08;0.90;;;;;;;;;;5073313;28;20021;-84
2022/05/30 06:14:13;;;;;;;1.58;0.90;;;;;;;;;;5072803;28;20665;-85
2022/05/30 06:16:40;;;;;;;2.35;1.00;;;;;;;;;;5072015;28;20031;-84
2022/05/30 06:19:09;;;;;;;2.25;1.20;;;;;;;;;;5072952;28;20123;-84
2022/05/30 06:21:35;;;;;;;3.97;0.90;;;;;;;;;;5073741;28;20052;-84
2022/05/30 06:24:01;;;;;;;2.70;1.20;;;;;;;;;;5072910;28;20042;-83
2022/05/30 06:26:45;;;;;;;1.85;1.30;;;;;;;;;;5073504;28;20066;-83
2022/05/30 06:29:16;;;;;;;4.78;1.27;;;;;;;;;;5058208;28;20413;-84
2022/05/30 06:31:43;;;;;;;1.00;0.90;;;;;;;;;;5057146;28;20032;-84
2022/05/30 06:34:09;;;;;;;2.15;1.17;;;;;;;;;;5073350;28;20025;-84
2022/05/30 06:36:40;;;;;;;1.10;1.00;;;;;;;;;;5056802;28;20032;-84
2022/05/30 06:39:06;;;;;;;2.45;1.10;;;;;;;;;;5073470;28;20450;-85
2022/05/30 06:41:40;;;;;;;2.58;1.10;;;;;;;;;;5057208;28;20033;-84
2022/05/30 06:44:08;;;;;;;2.17;1.30;;;;;;;;;;5072649;28;20400;-84
2022/05/30 06:46:52;;;;;;;1.63;1.00;;;;;;;;;;5074786;28;20044;-82
2022/05/30 06:49:38;;;;;;;2.45;1.10;;;;;;;;;;5066552;28;20458;-84
2022/05/30 06:52:05;;;;;;;3.30;1.00;;;;;;;;;;5072440;28;20029;-83
2022/05/30 06:54:31;;;;;;;2.13;1.00;;;;;;;;;;5074022;28;20063;-83
2022/05/30 06:59:41;;;;;;;2.58;1.20;;;;;;;;;;5072495;28;20046;-83
2022/05/30 07:02:12;;;;;;;2.65;1.20;;;;;;;;;;5072453;28;20020;-83
2022/05/30 07:04:56;;;;;;;2.33;1.10;;;;;;;;;;5072728;28;20519;-83
2022/05/30 07:07:47;;;;;;;2.13;1.00;;;;;;;;;;5057153;28;20471;-83
2022/05/30 07:10:38;;;;;;;1.45;1.00;;;;;;;;;;5059200;28;20119;-84
2022/05/30 07:13:10;;;;;;;1.15;1.05;;;;;;;;;;5072579;28;20031;-84
2022/05/30 07:15:38;;;;;;;1.65;0.93;;;;;;;;;;5071931;28;20051;-82
2022/05/30 07:18:12;;;;;;;2.45;1.10;;;;;;;;;;5071926;28;20094;-84
2022/05/30 07:20:39;;;;;;;1.75;1.13;;;;;;;;;;5058617;28;20059;-82
2022/05/30 07:23:23;;;;;;;1.52;1.00;;;;;;;;;;5076689;28;20047;-84
2022/05/30 07:26:12;;;;;;;2.00;1.30;;;;;;;;;;5072991;28;20516;-84
2022/05/30 07:28:56;;;;;;;1.70;1.10;;;;;;;;;;5055656;28;20455;-86
2022/05/30 07:31:40;;;;;;;2.95;1.13;;;;;;;;;;5072320;28;20043;-85
2022/05/30 07:34:30;;;;;;;1.80;1.10;;;;;;;;;;5057584;28;20032;-84
2022/05/30 07:37:24;;;;;;;1.00;0.90;;;;;;;;;;5077765;28;20041;-83
2022/05/30 07:40:13;;;;;;;1.38;1.10;;;;;;;;;;5063086;28;20048;-84
2022/05/30 07:43:08;;;;;;;1.45;1.10;;;;;;;;;;5068152;28;20036;-85
2022/05/30 07:45:42;;;;;;;1.13;1.00;;;;;;;;;;5075811;28;20039;-83
2022/05/30 07:48:29;;;;;;;1.63;1.08;;;;;;;;;;5076941;28;20093;-84
2022/05/30 07:51:32;;;;;;;2.70;1.30;;;;;;;;;;5068648;28;20044;-83
2022/05/30 07:54:16;;;;;;;1.42;1.10;;;;;;;;;;5078662;28;20578;-86
2022/05/30 07:57:04;;;;;;;1.90;0.98;;;;;;;;;;5077865;28;20044;-85
2022/05/30 07:59:30;;;;;;;1.95;1.10;;;;;;;;;;5078583;28;20066;-85
2022/05/30 08:01:57;;;;;;;1.73;1.10;;;;;;;;;;5077902;28;20048;-85
2022/05/30 08:04:23;;;;;;;2.00;1.17;;;;;;;;;;5077694;28;20028;-85
2022/05/30 08:06:58;;;;;;;2.08;1.10;;;;;;;;;;5079507;28;20040;-85
2022/05/30 08:09:56;;;;;;;1.40;1.10;;;;;;;;;;5078051;28;20063;-83
2022/05/30 08:12:25;;;;;;;1.75;1.17;;;;;;;;;;5076427;28;20082;-85
2022/05/30 08:14:54;;;;;;;3.08;1.10;;;;;;;;;;5077736;28;20020;-85
2022/05/30 08:17:21;;;;;;;2.63;1.20;;;;;;;;;;5075698;28;20036;-85
2022/05/30 08:19:47;;;;;;;1.98;1.17;;;;;;;;;;5077387;28;20025;-83
2022/05/30 08:22:13;;;;;;;2.17;1.20;;;;;;;;;;5076142;28;20040;-85
2022/05/30 08:24:41;;;;;;;4.25;1.30;;;;;;;;;;5076122;28;20032;-86
2022/05/30 08:27:12;;;;;;;1.65;1.30;;;;;;;;;;5077363;28;20048;-82
2022/05/30 08:29:45;;;;;;;2.45;1.23;;;;;;;;;;5077848;28;20048;-83
2022/05/30 08:32:13;;;;;;;2.30;1.30;;;;;;;;;;5077178;28;20553;-85
2022/05/30 08:34:59;;;;;;;1.48;1.20;;;;;;;;;;5079116;28;20455;-85
2022/05/30 08:37:30;;;;;;;1.40;1.30;;;;;;;;;;5066250;28;20012;-83
2022/05/30 08:42:45;;;;;;;1.60;1.38;;;;;;;;;;5077074;28;20040;-85
2022/05/30 08:45:17;;;;;;;2.83;1.27;;;;;;;;;;5080791;28;20032;-82
2022/05/30 08:47:58;;;;;;;2.67;1.30;;;;;;;;;;5076304;28;20162;-84
2022/05/30 08:50:40;;;;;;;2.75;1.00;;;;;;;;;;5078947;28;20028;-86
2022/05/30 08:53:22;;;;;;;1.90;1.10;;;;;;;;;;5059884;28;20028;-85
2022/05/30 08:55:54;;;;;;;2.42;1.20;;;;;;;;;;5074795;28;20028;-84
2022/05/30 08:58:55;;;;;;;1.73;1.20;;;;;;;;;;5075272;28;20123;-84
2022/05/30 09:01:33;;;;;;;4.32;0.93;;;;;;;;;;5074399;28;20047;-83
2022/05/30 09:05:14;;;;;;;2.78;1.10;;;;;;;;;;5075752;28;20048;-84
2022/05/30 09:07:52;;;;;;;1.90;1.00;;;;;;;;;;5075420;28;20028;-85
2022/05/30 09:10:25;;;;;;;2.88;1.10;;;;;;;;;;5075369;28;20119;-85
2022/05/30 09:13:07;;;;;;;1.15;1.00;;;;;;;;;;5078253;28;20028;-85
2022/05/30 09:16:04;;;;;;;1.75;1.00;;;;;;;;;;5076323;28;20090;-84
2022/05/30 09:18:44;;;;;;;2.22;1.00;;;;;;;;;;5058606;28;20404;-85
2022/05/30 09:21:11;;;;;;;1.30;1.00;;;;;;;;;;5074426;28;20029;-84
2022/05/30 09:23:38;;;;;;;1.70;1.02;;;;;;;;;;5059023;28;20021;-84
2022/05/30 09:26:07;;;;;;;1.65;1.00;;;;;;;;;;5074315;28;20028;-84
2022/05/30 09:28:43;;;;;;;1.83;1.02;;;;;;;;;;5075234;28;20489;-85
2022/05/30 09:31:40;;;;;;;1.02;0.90;;;;;;;;;;5075570;28;20466;-85
2022/05/30 09:34:33;;;;;;;3.03;1.00;;;;;;;;;;5075236;28;20045;-85
2022/05/30 09:37:33;;;;;;;1.40;1.10;;;;;;;;;;5059026;28;20072;-84
2022/05/30 09:40:08;;;;;;;1.02;0.90;;;;;;;;;;5076657;28;20044;-83
2022/05/30 09:42:46;;;;;;;2.15;0.90;;;;;;;;;;5074328;28;20096;-84
2022/05/30 09:45:30;;;;;;;1.30;0.90;;;;;;;;;;5057639;28;20547;-85
2022/05/30 09:48:07;;;;;;;2.25;0.90;;;;;;;;;;5074116;28;20040;-84
2022/05/30 09:50:57;;;;;;;1.75;1.00;;;;;;;;;;5074637;28;20052;-84
2022/05/30 09:53:42;;;;;;;2.45;1.15;;;;;;;;;;5075677;28;20024;-85
2022/05/30 09:56:11;;;;;;;2.13;0.90;;;;;;;;;;5073315;28;20054;-82
2022/05/30 09:58:43;;;;;;;1.45;0.80;;;;;;;;;;5074794;28;20036;-84
2022/05/30 10:01:49;;;;;;;1.65;1.00;;;;;;;;;;5064436;28;20036;-86
2022/05/30 10:04:41;;;;;;;1.60;1.00;;;;;;;;;;5057522;28;20379;-85
2022/05/30 10:07:09;;;;;;;3.13;1.27;;;;;;;;;;5057377;28;20028;-86
2022/05/30 10:09:57;;;;;;;1.95;1.27;;;;;;;;;;5073538;28;20102;-86
2022/05/30 10:12:39;;;;;;;1.95;1.02;;;;;;;;;;5056893;28;20162;-84
2022/05/30 10:15:32;;;;;;;1.33;1.00;;;;;;;;;;5073197;28;20029;-85
2022/05/30 10:18:17;;;;;;;2.03;1.10;;;;;;;;;;5074144;28;20043;-84
2022/05/30 10:21:09;;;;;;;1.60;1.20;;;;;;;;;;5074684;28;20158;-85
2022/05/30 10:31:07;;;;;;;1.30;1.00;;;;;;;;;;5075395;28;20055;-88
2022/05/30 10:34:05;;;;;;;3.97;1.40;;;;;;;;;;5077833;28;20044;-87
2022/05/30 10:36:45;;;;;;;2.20;1.20;;;;;;;;;;5074841;28;20130;-85
2022/05/30 10:39:43;;;;;;;1.73;1.20;;;;;;;;;;5073814;28;20044;-85
2022/05/30 10:42:14;;;;;;;3.03;1.25;;;;;;;;;;5074609;28;20074;-85
2022/05/30 10:44:51;;;;;;;2.97;1.30;;;;;;;;;;5074666;28;20123;-84
2022/05/30 10:47:26;;;;;;;4.13;1.30;;;;;;;;;;5073532;28;20082;-86
2022/05/30 10:50:13;;;;;;;2.78;1.20;;;;;;;;;;5073983;28;20033;-86
2022/05/30 10:52:59;;;;;;;2.07;1.30;;;;;;;;;;5074341;28;20032;-86
2022/05/30 10:55:46;;;;;;;5.40;1.20;;;;;;;;;;5059687;28;20047;-86
2022/05/30 10:58:22;;;;;;;2.80;1.17;;;;;;;;;;5074497;28;20116;-85
2022/05/30 11:00:54;;;;;;;2.10;1.23;;;;;;;;;;5074949;28;20046;-86
2022/05/30 11:03:30;;;;;;;1.65;1.10;;;;;;;;;;5074026;28;20029;-85
2022/05/30 11:06:03;;;;;;;2.13;1.20;;;;;;;;;;5075166;28;20560;-85
2022/05/30 11:08:58;;;;;;;3.95;1.35;;;;;;;;;;5076971;28;20033;-85
2022/05/30 11:11:44;;;;;;;1.70;1.38;;;;;;;;;;5078455;28;20043;-86
2022/05/30 11:15:06;;;;;;;2.40;1.17;;;;;;;;;;5064092;28;20033;-86
2022/05/30 11:18:10;;;;;;;1.63;1.23;;;;;;;;;;5032138;28;20109;-85
2022/05/30 11:21:16;;;;;;;2.42;1.35;;;;;;;;;;5079364;28;20037;-85
2022/05/30 11:23:42;;;;;;;1.77;1.20;;;;;;;;;;5061774;28;20024;-86
2022/05/30 11:26:42;;;;;;;2.08;1.25;;;;;;;;;;5079289;28;20231;-86
2022/05/30 11:29:12;;;;;;;2.55;1.15;;;;;;;;;;5078805;28;20034;-85
2022/05/30 11:31:56;;;;;;;2.92;1.23;;;;;;;;;;5078630;28;20029;-88
2022/05/30 11:34:47;;;;;;;;;;;;;;;;;;5078519;28;20032;-85
2022/05/30 11:37:50;;;;;;;1.25;1.10;;;;;;;;;;5079597;28;19954;-85
2022/05/30 11:41:02;;;;;;;2.85;1.38;;;;;;;;;;5079804;28;20083;-86
2022/05/30 11:43:58;;;;;;;1.98;1.00;;;;;;;;;;5017293;28;20044;-86
2022/05/30 11:46:39;;;;;;;2.28;1.20;;;;;;;;;;5080326;28;20043;-86
2022/05/30 11:49:05;;;;;;;2.22;1.00;;;;;;;;;;5079087;28;20063;-85
2022/05/30 11:51:45;;;;;;;1.40;1.10;;;;;;;;;;5079178;28;20033;-86
2022/05/30 11:54:19;;;;;;;1.92;1.20;;;;;;;;;;5077865;28;20447;-86
2022/05/30 11:57:23;;;;;;;2.03;1.05;;;;;;;;;;5078391;28;20094;-85
2022/05/30 11:59:51;;;;;;;1.65;1.00;;;;;;;;;;5078233;28;20047;-86
2022/05/30 12:02:26;;;;;;;4.07;1.10;;;;;;;;;;5078489;28;20039;-86
2022/05/30 12:05:16;;;;;;;5.47;1.10;;;;;;;;;;5078718;28;20050;-87
2022/05/30 12:08:09;;;;;;;2.92;1.10;;;;;;;;;;5079048;28;20037;-87
2022/05/30 12:10:47;;;;;;;2.10;1.17;;;;;;;;;;5079772;28;20062;-86
2022/05/30 12:13:15;;;;;;;1.90;1.00;;;;;;;;;;5079255;28;20515;-86
2022/05/30 12:15:56;;;;;;;2.05;1.10;;;;;;;;;;5077852;28;20121;-85
2022/05/30 12:24:14;;;;;;;1.15;1.00;;;;;;;;;;5078630;28;20064;-86
2022/05/30 12:26:46;;;;;;;2.65;1.10;;;;;;;;;;5079255;28;20477;-86
2022/05/30 12:29:29;;;;;;;1.33;0.98;;;;;;;;;;5078477;28;20028;-86
2022/05/30 12:32:16;;;;;;;;;;;;;;;;;;5079307;28;20093;-86
2022/05/30 12:34:57;;;;;;;1.52;1.00;;;;;;;;;;5093307;28;19912;-85
2022/05/30 12:37:38;;;;;;;1.10;0.90;;;;;;;;;;5098028;28;20046;-85
2022/05/30 12:40:05;;;;;;;1.65;1.00;;;;;;;;;;5097731;28;20036;-85
2022/05/30 12:42:34;;;;;;;1.23;0.90;;;;;;;;;;5097961;28;20020;-84
2022/05/30 12:45:21;;;;;;;3.10;1.30;;;;;;;;;;5096230;28;20036;-85
2022/05/30 12:47:52;;;;;;;1.17;0.90;;;;;;;;;;5097553;28;20052;-85
2022/05/30 12:50:31;;;;;;;1.80;0.93;;;;;;;;;;5097415;28;20035;-85
2022/05/30 12:53:00;;;;;;;1.55;0.98;;;;;;;;;;5097871;28;20544;-86
2022/05/30 12:55:38;;;;;;;3.13;1.00;;;;;;;;;;5087655;28;20037;-85
2022/05/30 12:58:04;;;;;;;1.85;1.15;;;;;;;;;;5057348;28;20048;-85
2022/05/30 13:00:36;;;;;;;1.52;1.00;;;;;;;;;;5055931;28;20048;-85
2022/05/30 13:03:44;;;;;;;1.48;0.95;;;;;;;;;;5056130;28;20037;-85
2022/05/30 13:06:20;;;;;;;1.83;1.05;;;;;;;;;;5034526;28;20045;-85
2022/05/30 13:08:55;;;;;;;1.55;1.00;;;;;;;;;;5057107;28;20166;-86
2022/05/30 13:11:32;;;;;;;0.93;0.80;;;;;;;;;;5056205;28;20063;-86
2022/05/30 13:14:07;;;;;;;2.72;0.80;;;;;;;;;;5056902;28;20029;-86
2022/05/30 13:16:42;;;;;;;2.75;1.00;;;;;;;;;;5059227;28;20619;-86
2022/05/30 13:19:13;;;;;;;1.30;0.90;;;;;;;;;;5060188;28;20073;-88
2022/05/30 13:21:42;;;;;;;2.15;0.90;;;;;;;;;;5060210;28;20041;-87
2022/05/30 13:24:34;;;;;;;2.10;0.90;;;;;;;;;;5058919;28;20033;-87
2022/05/30 13:27:01;;;;;;;0.75;0.75;;;;;;;;;;5059684;28;20140;-86
2022/05/30 13:29:33;;;;;;;2.13;0.90;;;;;;;;;;5056311;28;20146;-86
2022/05/30 13:31:59;;;;;;;1.70;1.00;;;;;;;;;;5056470;28;20048;-87
2022/05/30 13:34:28;;;;;;;5.47;1.10;;;;;;;;;;5057555;28;20021;-87
2022/05/30 13:36:55;;;;;;;2.08;1.00;;;;;;;;;;5061116;28;20063;-87
2022/05/30 13:39:21;;;;;;;0.80;0.77;;;;;;;;;;5058930;28;20076;-87
2022/05/30 13:41:47;;;;;;;1.73;0.80;;;;;;;;;;5057928;28;20028;-85
2022/05/30 13:44:22;;;;;;;1.75;0.90;;;;;;;;;;5055555;28;20421;-88
2022/05/30 13:46:54;;;;;;;2.03;1.00;;;;;;;;;;5059002;28;20032;-86
2022/05/30 13:49:53;;;;;;;1.88;0.80;;;;;;;;;;5056607;28;20044;-87
2022/05/30 13:52:23;;;;;;;1.08;0.90;;;;;;;;;;5051136;28;20044;-87
2022/05/30 13:55:02;;;;;;;1.50;0.90;;;;;;;;;;5057943;28;20036;-87
2022/05/30 13:57:29;;;;;;;2.45;0.80;;;;;;;;;;5058752;28;20090;-86
2022/05/30 13:59:58;;;;;;;1.15;0.90;;;;;;;;;;5056687;28;20072;-85
2022/05/30 14:02:28;;;;;;;1.80;0.90;;;;;;;;;;5056963;28;20069;-86
2022/05/30 14:04:59;;;;;;;1.33;0.90;;;;;;;;;;5059837;28;20041;-88
2022/05/30 14:07:33;;;;;;;2.15;1.10;;;;;;;;;;5057469;28;20076;-85
2022/05/30 14:10:18;;;;;;;2.40;1.00;;;;;;;;;;5059370;28;20421;-87
2022/05/30 14:12:48;;;;;;;1.80;1.00;;;;;;;;;;5057442;28;20033;-85
2022/05/30 14:15:24;;;;;;;2.28;1.40;;;;;;;;;;5058312;28;20041;-87
2022/05/30 14:17:51;;;;;;;1.23;0.70;;;;;;;;;;5067327;28;20036;-88
2022/05/30 14:20:20;;;;;;;1.63;0.95;;;;;;;;;;5077450;28;20036;-87
2022/05/30 14:22:59;;;;;;;1.58;0.98;;;;;;;;;;5076159;28;20036;-88
2022/05/30 14:25:33;;;;;;;1.58;1.00;;;;;;;;;;5076707;28;20032;-87
2022/05/30 14:28:02;;;;;;;1.98;1.00;;;;;;;;;;5078067;28;20024;-87
2022/05/30 14:30:32;;;;;;;2.55;0.90;;;;;;;;;;5078434;28;20036;-86
2022/05/30 14:33:11;;;;;;;2.50;0.98;;;;;;;;;;5077970;28;20033;-86
2022/05/30 14:35:38;;;;;;;2.03;0.93;;;;;;;;;;5073776;28;20038;-87
2022/05/30 14:38:07;;;;;;;1.92;1.00;;;;;;;;;;5069967;28;20045;-87
2022/05/30 14:40:50;;;;;;;3.28;0.93;;;;;;;;;;5057646;28;20081;-87
2022/05/30 14:43:51;;;;;;;5.82;1.10;;;;;;;;;;5063083;28;20057;-87
2022/05/30 14:46:30;;;;;;;1.65;1.02;;;;;;;;;;5063594;28;20128;-87
2022/05/30 14:48:56;;;;;;;2.75;1.00;;;;;;;;;;5063494;28;20048;-87
2022/05/30 14:51:33;;;;;;;1.58;0.95;;;;;;;;;;5064879;28;20029;-87
2022/05/30 14:54:08;;;;;;;3.20;0.90;;;;;;;;;;5066337;28;20115;-86
2022/05/30 14:56:34;;;;;;;1.13;1.00;;;;;;;;;;5062989;28;20059;-87
2022/05/30 14:59:03;;;;;;;1.70;0.90;;;;;;;;;;5061388;28;20264;-87
2022/05/30 15:01:29;;;;;;;2.75;1.10;;;;;;;;;;5062857;28;20091;-86
2022/05/30 15:04:08;;;;;;;2.65;1.05;;;;;;;;;;5061851;28;20053;-87
2022/05/30 15:06:37;;;;;;;2.50;1.05;;;;;;;;;;5063285;28;20037;-87
2022/05/30 15:09:04;;;;;;;2.05;1.20;;;;;;;;;;5063050;28;20041;-86
2022/05/30 15:11:30;;;;;;;3.20;1.02;;;;;;;;;;5061944;28;20044;-86
2022/05/30 15:14:00;;;;;;;3.63;1.20;;;;;;;;;;5044861;28;20131;-85
2022/05/30 15:16:27;;;;;;;1.58;1.00;;;;;;;;;;5062186;28;20049;-85
2022/05/30 15:18:53;;;;;;;1.55;1.23;;;;;;;;;;5062496;28;20442;-85
2022/05/30 15:21:25;;;;;;;2.25;1.10;;;;;;;;;;5058054;28;20067;-85
2022/05/30 15:23:51;;;;;;;3.17;1.10;;;;;;;;;;5057721;28;20484;-85
2022/05/30 15:26:22;;;;;;;1.73;1.20;;;;;;;;;;5059394;28;20123;-85
2022/05/30 15:28:48;;;;;;;2.47;1.40;;;;;;;;;;5059249;28;20041;-86
2022/05/30 15:31:18;;;;;;;3.00;1.20;;;;;;;;;;5059938;28;20028;-89
2022/05/30 15:33:44;;;;;;;1.92;1.10;;;;;;;;;;5058997;28;20386;-85
2022/05/30 15:36:11;;;;;;;1.65;1.00;;;;;;;;;;5057990;28;20033;-85
2022/05/30 15:38:36;;;;;;;1.60;1.10;;;;;;;;;;5057949;28;20036;-84
2022/05/30 15:41:02;;;;;;;3.60;1.20;;;;;;;;;;5058963;28;20043;-85
2022/05/30 15:43:28;;;;;;;1.50;1.00;;;;;;;;;;5059031;28;20033;-85
2022/05/30 15:45:56;;;;;;;1.50;1.00;;;;;;;;;;5057280;28;20397;-85
2022/05/30 15:48:22;;;;;;;1.92;1.00;;;;;;;;;;5059165;28;20029;-85
2022/05/30 15:50:48;;;;;;;2.10;1.20;;;;;;;;;;5059121;28;20037;-87
2022/05/30 15:58:45;;;;;;;2.17;1.50;;;;;;;;;;5059202;28;20118;-86